Nearby METAR Reports

 

CYOW - Ottawa Intl, Ontario, Canada
Distance from station: N 33km
Updated: Sat, 23-Feb-2019 12:00pm EST
Mostly cloudy
Mostly cloudy
 Wind from SE
Wind: SE 9 km/h
Temperature: -1°C
Wind Chill: -4°C
Dew Point: -8°C
Humidity: 59%
Barometer: 30.42 inHg , 1030.1 hPa
Clouds: Mostly cloudy
Visibility: 24 km
Cloud details: Few Clouds 5486 m
Mostly cloudy 7620 m
2019/02/23 17:00 CYOW 231700Z 13005KT 15SM FEW180 BKN250 M01/M08 A3042 RMK AC1CI6 SLP309
CYGK - Kingston Arpt, Ontario, Canada
Distance from station: SW 117km
Updated: Sat, 23-Feb-2019 12:00pm EST
Mostly cloudy
Mostly cloudy
 Wind from SE
Wind: SE 7 km/h
Temperature: 0°C
Wind Chill: -3°C
Dew Point: -5°C
Humidity: 69%
Barometer: 30.40 inHg , 1029.5 hPa
Clouds: Mostly cloudy
Visibility: 24 km
Cloud details: Mostly cloudy 3962 m
Mostly cloudy 7620 m
2019/02/23 17:00 CYGK 231700Z 14004KT 15SM BKN130 BKN250 00/M05 A3040 RMK AC5CI2 SLP300
KMSS - Massena, New York, USA
Distance from station: E 62km
Updated: Sat, 23-Feb-2019 12:53pm EST
Clear
Clear
 Wind from NNE
Wind: NNE 9 km/h
Temperature: 1°C
Wind Chill: -2°C
Dew Point: -7°C
Humidity: 56%
Barometer: 30.41 inHg , 1029.8 hPa
Clouds: Clear
Visibility: 16 km
2019/02/23 17:53 KMSS 231753Z AUTO 02005KT 10SM CLR 01/M07 A3041 RMK AO2 SLP305 T00111072 10017 21089 58015